Startup, Washington
Current Conditions -  °F | °C
As of 11:53 AM on Saturday 25 Oct 2014 (Local Time) from KPAE Reporting Station
Overcast Overcast  
Wind Chill: 58°   Ceiling: 9000
Heat Index: 58°   Visibility: 10mi
Dew Point: 50°   Wind: 6mph
Humidity: 75%   Direction: 120°ESE
Pressure: 29.42"   Gusts: NA
Location:  47.87°N, 121.74°W
Report Text: KPAE 251853Z 12005KT 10SM FEW039 OVC090 14/10 A2942 RMK AO2 RAB29E43 SLP962 P0000 T01440100
Loading
Personal Weather Stations






























Interactive Weather Map
Tropical Storm Tracking
New forecast layout! Learn more

10-Day Weather Forecast

Advertisements
Track Severe Weather on mobile